createdAt,value
2023-05-08T00:01:21.012Z,18.08
2023-05-08T00:03:47.964Z,18.13
2023-05-08T00:06:16.035Z,18.14
2023-05-08T00:08:43.266Z,18.06
2023-05-08T00:11:11.061Z,17.94
2023-05-08T00:13:37.618Z,17.87
2023-05-08T00:16:04.462Z,17.85
2023-05-08T00:18:31.016Z,17.81
2023-05-08T00:20:57.642Z,17.85
2023-05-08T00:23:25.560Z,17.76
2023-05-08T00:25:52.094Z,17.77
2023-05-08T00:28:18.628Z,17.71
2023-05-08T00:30:45.187Z,17.69
2023-05-08T00:33:11.781Z,17.69
2023-05-08T00:35:38.702Z,17.72
2023-05-08T00:38:05.330Z,17.74
2023-05-08T00:40:33.276Z,17.67
2023-05-08T00:42:59.804Z,17.70
2023-05-08T00:45:34.483Z,17.71
2023-05-08T00:48:01.691Z,17.71
2023-05-08T00:50:28.966Z,17.69
2023-05-08T00:52:56.916Z,17.75
2023-05-08T00:55:24.589Z,17.72
2023-05-08T00:57:52.562Z,17.77
2023-05-08T01:00:20.880Z,17.77
2023-05-08T01:02:47.759Z,17.73
2023-05-08T01:05:14.427Z,17.73
2023-05-08T01:07:41.214Z,17.74
2023-05-08T01:10:09.009Z,17.70
2023-05-08T01:12:47.572Z,17.68
2023-05-08T01:15:18.880Z,17.65
2023-05-08T01:17:57.467Z,17.70
2023-05-08T01:20:35.353Z,17.69
2023-05-08T01:23:43.365Z,17.70
2023-05-08T01:26:49.856Z,17.69
2023-05-08T01:29:44.155Z,17.67
2023-05-08T01:32:15.902Z,17.62
2023-05-08T01:34:49.811Z,17.64
2023-05-08T01:37:23.774Z,17.73
2023-05-08T01:40:00.837Z,17.85
2023-05-08T01:42:35.893Z,17.69
2023-05-08T01:45:08.997Z,17.71
2023-05-08T01:47:38.277Z,17.73
2023-05-08T01:50:09.286Z,17.69
2023-05-08T01:52:43.589Z,17.66
2023-05-08T01:55:15.742Z,17.70
2023-05-08T01:57:46.886Z,17.65
2023-05-08T02:00:17.544Z,17.60
2023-05-08T02:02:48.038Z,17.61
2023-05-08T02:05:15.227Z,17.59
2023-05-08T02:07:43.945Z,17.62
2023-05-08T02:10:12.600Z,17.60
2023-05-08T02:12:41.885Z,17.61
2023-05-08T02:15:09.650Z,17.60
2023-05-08T02:17:38.605Z,17.57
2023-05-08T02:20:09.061Z,17.50
2023-05-08T02:22:37.002Z,17.41
2023-05-08T02:25:04.313Z,17.39
2023-05-08T02:27:32.003Z,17.36
2023-05-08T02:29:59.222Z,17.47
2023-05-08T02:32:27.982Z,17.43
2023-05-08T02:35:03.223Z,17.43
2023-05-08T02:37:33.048Z,17.46
2023-05-08T02:40:01.355Z,17.40
2023-05-08T02:42:27.820Z,17.41
2023-05-08T02:44:54.362Z,17.52
2023-05-08T02:47:26.019Z,17.53
2023-05-08T02:49:57.127Z,17.55
2023-05-08T02:52:28.613Z,17.53
2023-05-08T02:55:00.190Z,17.54
2023-05-08T02:57:37.445Z,17.47
2023-05-08T03:00:12.236Z,17.39
2023-05-08T03:02:41.402Z,17.35
2023-05-08T03:05:15.415Z,17.30
2023-05-08T03:07:43.642Z,17.43
2023-05-08T03:10:13.653Z,17.44
2023-05-08T03:12:44.618Z,17.27
2023-05-08T03:15:17.989Z,17.20
2023-05-08T03:17:46.205Z,17.20
2023-05-08T03:20:16.947Z,17.14
2023-05-08T03:22:46.724Z,17.16
2023-05-08T03:25:17.754Z,17.11
2023-05-08T03:27:45.477Z,17.15
2023-05-08T03:30:13.333Z,17.11
2023-05-08T03:32:41.198Z,17.10
2023-05-08T03:35:09.710Z,17.15
2023-05-08T03:37:38.373Z,17.16
2023-05-08T03:40:07.182Z,17.19
2023-05-08T03:42:36.018Z,17.18
2023-05-08T03:45:03.903Z,17.15
2023-05-08T03:47:32.094Z,17.10
2023-05-08T03:50:00.246Z,17.00
2023-05-08T03:52:26.806Z,17.03
2023-05-08T03:54:53.457Z,17.09
2023-05-08T03:57:20.246Z,17.09
2023-05-08T03:59:54.506Z,17.02
2023-05-08T04:02:28.783Z,16.96
2023-05-08T04:05:01.836Z,17.05
2023-05-08T04:07:35.819Z,16.95
2023-05-08T04:10:09.249Z,17.02
2023-05-08T04:12:40.552Z,17.09
2023-05-08T04:15:13.891Z,17.11
2023-05-08T04:17:43.721Z,17.09
2023-05-08T04:20:15.037Z,17.05
2023-05-08T04:22:43.251Z,17.12
2023-05-08T04:25:12.571Z,17.01
2023-05-08T04:27:39.370Z,17.00
2023-05-08T04:30:07.705Z,17.11
2023-05-08T04:32:38.370Z,17.16
2023-05-08T04:35:07.995Z,17.18
2023-05-08T04:37:34.806Z,17.25
2023-05-08T04:40:24.924Z,17.03
2023-05-08T04:42:51.720Z,17.19
2023-05-08T04:45:18.590Z,17.23
2023-05-08T04:47:46.912Z,17.24
2023-05-08T04:50:13.589Z,17.42
2023-05-08T04:52:40.248Z,17.45
2023-05-08T04:55:08.296Z,17.43
2023-05-08T04:57:34.873Z,17.59
2023-05-08T05:00:01.477Z,17.55
2023-05-08T05:02:28.212Z,17.85
2023-05-08T05:04:56.240Z,18.05
2023-05-08T05:07:22.787Z,18.16
2023-05-08T05:09:49.504Z,18.23
2023-05-08T05:12:16.066Z,18.29
2023-05-08T05:14:42.633Z,18.29
2023-05-08T05:17:09.244Z,18.44
2023-05-08T05:19:35.811Z,18.51
2023-05-08T05:22:03.686Z,18.40
2023-05-08T05:24:30.252Z,18.47
2023-05-08T05:26:56.913Z,18.45
2023-05-08T05:29:23.691Z,18.48
2023-05-08T05:31:50.214Z,18.49
2023-05-08T05:34:16.754Z,18.34
2023-05-08T05:36:43.483Z,18.48
2023-05-08T05:39:11.403Z,18.61
2023-05-08T05:41:37.918Z,18.66
2023-05-08T05:44:04.798Z,18.74
2023-05-08T05:46:31.363Z,18.71
2023-05-08T05:48:59.482Z,18.90
2023-05-08T05:51:26.245Z,18.82
2023-05-08T05:53:52.840Z,18.88
2023-05-08T05:56:20.860Z,18.98
2023-05-08T05:58:47.398Z,18.88
2023-05-08T06:01:14.285Z,18.87
2023-05-08T06:03:40.961Z,18.94
2023-05-08T06:06:08.119Z,18.98
2023-05-08T06:08:34.929Z,18.97
2023-05-08T06:11:01.685Z,19.05
2023-05-08T06:13:30.065Z,18.97
2023-05-08T06:15:56.757Z,19.11
2023-05-08T06:18:23.646Z,19.09
2023-05-08T06:20:56.999Z,19.27
2023-05-08T06:23:23.662Z,19.53
2023-05-08T06:25:50.402Z,19.62
2023-05-08T06:28:17.673Z,19.40
2023-05-08T06:30:45.782Z,19.55
2023-05-08T06:33:12.409Z,19.65
2023-05-08T06:35:38.986Z,19.70
2023-05-08T06:38:05.751Z,19.94
2023-05-08T06:40:32.457Z,20.00
2023-05-08T06:42:59.073Z,20.11
2023-05-08T06:45:25.739Z,20.19
2023-05-08T06:47:53.784Z,20.35
2023-05-08T06:50:20.606Z,20.66
2023-05-08T06:52:47.161Z,20.80
2023-05-08T06:55:13.943Z,21.04
2023-05-08T06:57:40.669Z,21.49
2023-05-08T07:00:08.656Z,21.87
2023-05-08T07:02:35.356Z,22.11
2023-05-08T07:05:03.778Z,22.60
2023-05-08T07:07:30.392Z,22.72
2023-05-08T07:09:56.916Z,22.84
2023-05-08T07:12:23.704Z,22.59
2023-05-08T07:14:50.290Z,22.83
2023-05-08T07:17:16.894Z,22.89
2023-05-08T07:19:43.512Z,23.32
2023-05-08T07:22:11.491Z,23.17
2023-05-08T07:24:38.204Z,23.19
2023-05-08T07:27:04.832Z,23.32
2023-05-08T07:29:31.406Z,23.46
2023-05-08T07:31:58.126Z,23.97
2023-05-08T07:34:24.832Z,23.69
2023-05-08T07:36:51.375Z,24.67
2023-05-08T07:39:19.442Z,25.52
2023-05-08T07:41:48.415Z,25.38
2023-05-08T07:44:16.264Z,24.89
2023-05-08T07:46:42.906Z,25.11
2023-05-08T07:49:09.869Z,24.74
2023-05-08T07:51:36.433Z,24.58
2023-05-08T07:54:03.008Z,24.10
2023-05-08T07:56:31.022Z,24.25
2023-05-08T07:58:57.768Z,24.81
2023-05-08T08:01:24.371Z,24.80
2023-05-08T08:03:51.192Z,24.67
2023-05-08T08:06:17.865Z,24.83
2023-05-08T08:08:44.434Z,24.72
2023-05-08T08:11:11.039Z,24.67
2023-05-08T08:13:38.978Z,24.85
2023-05-08T08:16:06.459Z,24.69
2023-05-08T08:18:34.529Z,24.71
2023-05-08T08:21:01.081Z,24.46
2023-05-08T08:23:27.685Z,24.49
2023-05-08T08:25:54.235Z,24.77
2023-05-08T08:28:20.845Z,24.81
2023-05-08T08:30:48.811Z,24.96
2023-05-08T08:33:17.505Z,25.18
2023-05-08T08:35:45.484Z,24.98
2023-05-08T08:38:12.441Z,24.95
2023-05-08T08:40:39.784Z,24.71
2023-05-08T08:43:06.417Z,24.50
2023-05-08T08:45:33.258Z,24.62
2023-05-08T08:48:03.247Z,24.72
2023-05-08T08:50:31.760Z,25.01
2023-05-08T08:53:04.455Z,25.04
2023-05-08T08:55:32.527Z,25.06
2023-05-08T08:58:14.468Z,24.98
2023-05-08T09:00:42.053Z,25.06
2023-05-08T09:03:10.456Z,25.11
2023-05-08T09:05:37.552Z,25.20
2023-05-08T09:08:05.589Z,25.35
2023-05-08T09:10:32.830Z,25.76
2023-05-08T09:12:59.444Z,25.59
2023-05-08T09:15:26.114Z,25.66
2023-05-08T09:17:52.821Z,25.10
2023-05-08T09:20:21.432Z,25.37
2023-05-08T09:22:49.204Z,25.31
2023-05-08T09:25:15.947Z,25.18
2023-05-08T09:27:42.712Z,25.11
2023-05-08T09:30:13.033Z,25.29
2023-05-08T09:32:41.091Z,25.17
2023-05-08T09:35:09.902Z,25.17
2023-05-08T09:37:40.395Z,25.15
2023-05-08T09:40:18.752Z,24.77
2023-05-08T09:42:45.823Z,24.75
2023-05-08T09:45:27.282Z,24.81
2023-05-08T09:47:54.012Z,24.82
2023-05-08T09:50:20.713Z,24.82
2023-05-08T09:52:49.826Z,24.87
2023-05-08T09:55:16.889Z,24.77
2023-05-08T09:57:53.371Z,24.77
2023-05-08T10:00:20.861Z,24.76
2023-05-08T10:02:55.647Z,25.07
2023-05-08T10:05:24.612Z,25.23
2023-05-08T10:07:52.682Z,25.49
2023-05-08T10:10:23.605Z,25.52
2023-05-08T10:12:51.821Z,25.87
2023-05-08T10:15:18.539Z,26.27
2023-05-08T10:17:54.212Z,26.33
2023-05-08T10:20:21.738Z,26.31
2023-05-08T10:22:49.317Z,26.61
2023-05-08T10:25:22.287Z,26.73
2023-05-08T10:27:59.492Z,26.41
2023-05-08T10:30:26.830Z,26.73
2023-05-08T10:32:54.589Z,26.87
2023-05-08T10:35:21.941Z,27.20
2023-05-08T10:37:50.029Z,27.21
2023-05-08T10:40:18.455Z,26.94
2023-05-08T10:42:45.516Z,27.11
2023-05-08T10:45:12.782Z,27.56
2023-05-08T10:47:53.413Z,27.74
2023-05-08T10:50:34.810Z,27.53
2023-05-08T10:53:06.844Z,27.83
2023-05-08T10:55:37.090Z,27.55
2023-05-08T10:58:12.008Z,27.82
2023-05-08T11:01:11.910Z,27.95
2023-05-08T11:03:40.501Z,27.82
2023-05-08T11:06:07.218Z,27.62
2023-05-08T11:08:44.188Z,28.16
2023-05-08T11:11:17.590Z,28.34
2023-05-08T11:13:49.562Z,27.63
2023-05-08T11:16:16.306Z,28.00
2023-05-08T11:19:16.561Z,28.55
2023-05-08T11:22:13.392Z,28.48
2023-05-08T11:24:46.751Z,28.32
2023-05-08T11:27:14.764Z,28.48
2023-05-08T11:29:41.457Z,28.42
2023-05-08T11:32:08.233Z,28.30
2023-05-08T11:34:47.645Z,27.46
2023-05-08T11:37:18.348Z,26.85
2023-05-08T11:39:44.936Z,27.22
2023-05-08T11:42:34.798Z,26.84
2023-05-08T11:45:06.380Z,26.94
2023-05-08T11:47:39.201Z,26.48
2023-05-08T11:50:07.852Z,26.79
2023-05-08T11:52:35.868Z,26.79
2023-05-08T11:55:04.690Z,27.04
2023-05-08T11:57:31.770Z,26.36
2023-05-08T12:00:04.402Z,26.74
2023-05-08T12:02:38.675Z,27.30
2023-05-08T12:05:07.211Z,27.70
2023-05-08T12:07:33.871Z,27.79
2023-05-08T12:10:01.553Z,27.51
2023-05-08T12:12:37.822Z,27.83
2023-05-08T12:15:10.473Z,27.99
2023-05-08T12:17:37.202Z,27.81
2023-05-08T12:20:11.211Z,27.73
2023-05-08T12:22:38.922Z,28.12
2023-05-08T12:25:07.750Z,28.30
2023-05-08T12:27:34.404Z,28.32
2023-05-08T12:30:01.033Z,27.90
2023-05-08T12:32:29.848Z,28.28
2023-05-08T12:34:57.118Z,28.23
2023-05-08T12:37:24.401Z,28.13
2023-05-08T12:39:51.001Z,28.12
2023-05-08T12:42:17.642Z,28.33
2023-05-08T12:44:50.518Z,28.06
2023-05-08T12:47:18.971Z,28.28
2023-05-08T12:49:47.851Z,28.66
2023-05-08T12:52:15.270Z,28.50
2023-05-08T12:54:48.043Z,28.49
2023-05-08T12:57:17.458Z,28.48
2023-05-08T12:59:45.020Z,28.23
2023-05-08T13:02:13.967Z,28.19
2023-05-08T13:04:40.786Z,28.43
2023-05-08T13:07:08.892Z,28.32
2023-05-08T13:09:35.483Z,28.30
2023-05-08T13:12:02.213Z,28.05
2023-05-08T13:14:28.860Z,28.07
2023-05-08T13:16:55.977Z,27.70
2023-05-08T13:19:22.729Z,27.89
2023-05-08T13:21:49.324Z,27.95
2023-05-08T13:24:17.344Z,27.73
2023-05-08T13:26:43.940Z,27.54
2023-05-08T13:29:11.676Z,27.62
2023-05-08T13:31:38.347Z,27.63
2023-05-08T13:34:04.984Z,27.23
2023-05-08T13:36:31.600Z,27.05
2023-05-08T13:38:58.066Z,27.06
2023-05-08T13:41:26.306Z,26.99
2023-05-08T13:43:52.933Z,27.13
2023-05-08T13:46:19.581Z,26.95
2023-05-08T13:48:46.147Z,26.94
2023-05-08T13:51:12.876Z,26.80
2023-05-08T13:53:39.490Z,26.51
2023-05-08T13:56:06.482Z,26.76
2023-05-08T13:58:34.473Z,26.66
2023-05-08T14:01:10.437Z,26.47
2023-05-08T14:03:44.623Z,26.44
2023-05-08T14:06:11.278Z,26.46
2023-05-08T14:08:45.224Z,26.24
2023-05-08T14:11:13.841Z,26.33
2023-05-08T14:13:44.932Z,25.92
2023-05-08T14:16:11.555Z,26.20
2023-05-08T14:18:38.222Z,25.97
2023-05-08T14:21:05.057Z,25.53
2023-05-08T14:23:31.706Z,25.64
2023-05-08T14:25:58.457Z,25.74
2023-05-08T14:28:25.039Z,25.74
2023-05-08T14:30:53.034Z,25.67
2023-05-08T14:33:19.652Z,25.51
2023-05-08T14:35:46.354Z,25.46
2023-05-08T14:38:12.920Z,24.99
2023-05-08T14:40:39.529Z,25.24
2023-05-08T14:43:06.158Z,25.15
2023-05-08T14:45:32.769Z,25.14
2023-05-08T14:48:00.973Z,25.08
2023-05-08T14:50:27.741Z,25.15
2023-05-08T14:52:54.438Z,24.81
2023-05-08T14:55:21.994Z,24.60
2023-05-08T14:57:48.944Z,24.94
2023-05-08T15:00:17.333Z,24.90
2023-05-08T15:02:44.779Z,24.63
2023-05-08T15:08:01.391Z,24.90
2023-05-08T15:10:28.029Z,24.87
2023-05-08T15:12:54.814Z,25.20
2023-05-08T15:15:21.616Z,25.12
2023-05-08T15:17:48.456Z,25.15
2023-05-08T15:20:16.378Z,25.17
2023-05-08T15:22:43.009Z,25.15
2023-05-08T15:25:09.927Z,24.83
2023-05-08T15:27:36.492Z,24.76
2023-05-08T15:30:03.651Z,24.68
2023-05-08T15:32:30.315Z,24.75
2023-05-08T15:34:57.067Z,24.54
2023-05-08T15:37:25.013Z,24.47
2023-05-08T15:39:51.573Z,24.36
2023-05-08T15:42:18.220Z,24.30
2023-05-08T15:47:14.496Z,24.67
2023-05-08T15:49:41.133Z,24.42
2023-05-08T15:52:07.686Z,24.28
2023-05-08T15:54:35.602Z,24.13
2023-05-08T15:57:02.195Z,24.04
2023-05-08T15:59:28.745Z,23.90
2023-05-08T16:01:55.417Z,23.84
2023-05-08T16:04:22.059Z,23.78
2023-05-08T16:06:48.766Z,23.60
2023-05-08T16:09:15.406Z,23.47
2023-05-08T16:11:43.867Z,23.46
2023-05-08T16:14:10.455Z,23.54
2023-05-08T16:16:38.226Z,23.27
2023-05-08T16:19:04.832Z,23.13
2023-05-08T16:21:31.433Z,23.20
2023-05-08T16:23:57.984Z,23.20
2023-05-08T16:26:24.547Z,22.90
2023-05-08T16:28:52.717Z,22.86
2023-05-08T16:31:19.309Z,23.02
2023-05-08T16:33:46.063Z,23.07
2023-05-08T16:36:12.819Z,23.07
2023-05-08T16:38:39.399Z,22.90
2023-05-08T16:41:07.316Z,23.13
2023-05-08T16:43:33.949Z,23.08
2023-05-08T16:46:01.977Z,23.09
2023-05-08T16:48:28.595Z,23.03
2023-05-08T16:50:55.160Z,23.10
2023-05-08T16:53:21.786Z,22.98
2023-05-08T16:55:48.415Z,22.79
2023-05-08T16:58:15.008Z,22.80
2023-05-08T17:00:41.606Z,22.87
2023-05-08T17:03:09.687Z,22.86
2023-05-08T17:05:37.099Z,22.87
2023-05-08T17:08:03.792Z,22.90
2023-05-08T17:10:30.664Z,22.66
2023-05-08T17:12:57.325Z,22.55
2023-05-08T17:15:23.922Z,22.52
2023-05-08T17:17:50.502Z,22.42
2023-05-08T17:20:18.820Z,22.46
2023-05-08T17:22:45.472Z,22.46
2023-05-08T17:25:12.058Z,22.42
2023-05-08T17:27:44.913Z,22.42
2023-05-08T17:32:39.121Z,22.28
2023-05-08T17:35:06.768Z,22.31
2023-05-08T17:37:34.811Z,22.20
2023-05-08T17:40:01.421Z,22.14
2023-05-08T17:42:27.967Z,22.10
2023-05-08T17:44:54.544Z,22.03
2023-05-08T17:47:21.163Z,22.10
2023-05-08T17:49:47.800Z,22.15
2023-05-08T17:52:14.373Z,22.05
2023-05-08T17:54:42.308Z,22.03
2023-05-08T17:57:08.860Z,21.95
2023-05-08T17:59:35.513Z,21.80
2023-05-08T18:02:02.081Z,21.78
2023-05-08T18:04:28.643Z,21.79
2023-05-08T18:06:55.195Z,21.64
2023-05-08T18:09:21.734Z,21.47
2023-05-08T18:11:49.800Z,21.46
2023-05-08T18:14:16.360Z,21.44
2023-05-08T18:16:42.946Z,21.50
2023-05-08T18:19:09.549Z,21.33
2023-05-08T18:21:36.139Z,21.34
2023-05-08T18:24:02.701Z,21.20
2023-05-08T18:26:29.327Z,21.25
2023-05-08T18:28:57.300Z,21.26
2023-05-08T18:31:23.885Z,21.26
2023-05-08T18:33:50.491Z,21.11
2023-05-08T18:36:17.094Z,21.07
2023-05-08T18:38:43.655Z,20.94
2023-05-08T18:41:10.334Z,20.97
2023-05-08T18:43:36.984Z,20.80
2023-05-08T18:46:12.080Z,20.83
2023-05-08T18:48:39.013Z,20.73
2023-05-08T18:51:05.432Z,20.65
2023-05-08T18:53:33.070Z,20.57
2023-05-08T18:56:02.245Z,20.54
2023-05-08T18:58:28.800Z,20.43
2023-05-08T19:00:55.522Z,20.36
2023-05-08T19:03:23.596Z,20.26
2023-05-08T19:05:50.476Z,20.20
2023-05-08T19:08:17.143Z,20.12
2023-05-08T19:10:43.757Z,20.06
2023-05-08T19:13:10.413Z,20.09
2023-05-08T19:15:37.188Z,20.09
2023-05-08T19:18:04.262Z,19.90
2023-05-08T19:20:32.982Z,19.93
2023-05-08T19:22:59.563Z,19.92
2023-05-08T19:25:26.291Z,19.83
2023-05-08T19:27:52.827Z,19.80
2023-05-08T19:30:19.504Z,19.78
2023-05-08T19:32:46.053Z,19.72
2023-05-08T19:35:12.967Z,19.62
2023-05-08T19:37:41.006Z,19.50
2023-05-08T19:40:08.801Z,19.46
2023-05-08T19:42:35.593Z,19.47
2023-05-08T19:45:02.138Z,19.42
2023-05-08T19:47:28.812Z,19.42
2023-05-08T19:49:55.485Z,19.39
2023-05-08T19:52:22.185Z,19.43
2023-05-08T19:54:50.136Z,19.33
2023-05-08T19:57:16.780Z,19.20
2023-05-08T19:59:43.353Z,19.14
2023-05-08T20:02:09.922Z,19.11
2023-05-08T20:04:48.686Z,19.19
2023-05-08T20:07:23.316Z,19.19
2023-05-08T20:09:51.323Z,19.18
2023-05-08T20:12:18.026Z,19.17
2023-05-08T20:14:45.064Z,19.17
2023-05-08T20:17:11.633Z,19.09
2023-05-08T20:19:38.359Z,19.08
2023-05-08T20:22:05.074Z,19.05
2023-05-08T20:24:31.888Z,18.98
2023-05-08T20:26:59.834Z,19.03
2023-05-08T20:29:26.485Z,19.10
2023-05-08T20:31:53.737Z,18.98
2023-05-08T20:34:21.930Z,19.03
2023-05-08T20:36:49.532Z,19.05
2023-05-08T20:39:16.232Z,18.96
2023-05-08T20:41:42.853Z,18.92
2023-05-08T20:44:10.817Z,18.97
2023-05-08T20:46:37.401Z,18.92
2023-05-08T20:49:03.987Z,18.91
2023-05-08T20:51:30.562Z,18.67
2023-05-08T20:53:57.146Z,18.83
2023-05-08T20:56:23.720Z,18.87
2023-05-08T20:58:50.368Z,18.87
2023-05-08T21:01:20.688Z,18.82
2023-05-08T21:03:47.708Z,18.83
2023-05-08T21:06:14.329Z,18.84
2023-05-08T21:08:40.891Z,18.79
2023-05-08T21:11:07.533Z,18.65
2023-05-08T21:13:34.142Z,18.52
2023-05-08T21:16:01.048Z,18.69
2023-05-08T21:18:29.084Z,18.66
2023-05-08T21:20:55.644Z,18.66
2023-05-08T21:23:22.471Z,18.64
2023-05-08T21:25:49.545Z,18.60
2023-05-08T21:28:17.281Z,18.55
2023-05-08T21:30:43.958Z,18.49
2023-05-08T21:33:10.746Z,18.54
2023-05-08T21:35:38.664Z,18.42
2023-05-08T21:38:05.239Z,18.41
2023-05-08T21:40:31.849Z,18.39
2023-05-08T21:42:58.424Z,18.31
2023-05-08T21:45:24.963Z,18.35
2023-05-08T21:47:51.768Z,18.19
2023-05-08T21:50:18.349Z,18.31
2023-05-08T21:52:46.295Z,18.40
2023-05-08T21:55:13.145Z,18.32
2023-05-08T21:57:40.033Z,18.40
2023-05-08T22:00:08.194Z,18.32
2023-05-08T22:02:35.137Z,18.27
2023-05-08T22:05:01.664Z,18.18
2023-05-08T22:07:28.460Z,18.23
2023-05-08T22:09:56.393Z,18.18
2023-05-08T22:12:22.938Z,18.17
2023-05-08T22:14:49.521Z,18.10
2023-05-08T22:17:16.390Z,18.21
2023-05-08T22:19:42.927Z,18.07
2023-05-08T22:22:09.462Z,18.18
2023-05-08T22:24:36.283Z,18.14
2023-05-08T22:27:04.334Z,18.12
2023-05-08T22:29:30.870Z,18.07
2023-05-08T22:31:57.451Z,18.01
2023-05-08T22:34:24.192Z,18.06
2023-05-08T22:36:50.780Z,17.98
2023-05-08T22:39:17.618Z,18.01
2023-05-08T22:41:44.248Z,17.93
2023-05-08T22:44:12.354Z,17.91
2023-05-08T22:46:39.118Z,17.92
2023-05-08T22:49:06.016Z,17.95
2023-05-08T22:51:32.617Z,17.94
2023-05-08T22:53:59.375Z,17.99
2023-05-08T22:56:26.092Z,17.94
2023-05-08T22:58:52.618Z,17.85
2023-05-08T23:01:20.689Z,17.91
2023-05-08T23:03:47.437Z,17.85
2023-05-08T23:06:14.031Z,17.88
2023-05-08T23:08:40.577Z,17.83
2023-05-08T23:11:07.160Z,18.01
2023-05-08T23:13:33.759Z,17.99
2023-05-08T23:16:00.769Z,18.03
2023-05-08T23:18:28.747Z,17.97
2023-05-08T23:20:55.597Z,17.87
2023-05-08T23:23:22.178Z,17.84
2023-05-08T23:25:48.847Z,17.91
2023-05-08T23:28:15.380Z,17.85
2023-05-08T23:30:41.933Z,17.79
2023-05-08T23:33:08.519Z,17.86
2023-05-08T23:35:36.332Z,17.81
2023-05-08T23:38:02.942Z,17.73
2023-05-08T23:40:29.490Z,17.63
2023-05-08T23:42:56.129Z,17.73
2023-05-08T23:45:23.143Z,17.63
2023-05-08T23:47:49.702Z,17.58
2023-05-08T23:50:16.518Z,17.49
2023-05-08T23:52:44.446Z,17.53
2023-05-08T23:55:11.444Z,17.55
2023-05-08T23:57:38.166Z,17.54
